sensor_id;sensor_type;location;lat;lon;timestamp;P1;durP1;ratioP1;P2;durP2;ratioP2
11791;SDS011;5953;52.372;9.918;2022-12-07T00:01:23;23.50;;;15.87;;
11791;SDS011;5953;52.372;9.918;2022-12-07T00:03:53;24.57;;;16.57;;
11791;SDS011;5953;52.372;9.918;2022-12-07T00:06:23;27.70;;;17.30;;
11791;SDS011;5953;52.372;9.918;2022-12-07T00:08:51;22.50;;;16.97;;
11791;SDS011;5953;52.372;9.918;2022-12-07T00:11:20;24.80;;;16.57;;
11791;SDS011;5953;52.372;9.918;2022-12-07T00:13:52;24.47;;;16.70;;
11791;SDS011;5953;52.372;9.918;2022-12-07T00:16:23;27.97;;;17.70;;
11791;SDS011;5953;52.372;9.918;2022-12-07T00:18:52;25.20;;;17.67;;
11791;SDS011;5953;52.372;9.918;2022-12-07T00:21:21;26.80;;;17.10;;
11791;SDS011;5953;52.372;9.918;2022-12-07T00:23:51;29.27;;;17.37;;
11791;SDS011;5953;52.372;9.918;2022-12-07T00:26:21;26.97;;;17.83;;
11791;SDS011;5953;52.372;9.918;2022-12-07T00:28:51;28.60;;;18.37;;
11791;SDS011;5953;52.372;9.918;2022-12-07T00:31:22;26.03;;;17.87;;
11791;SDS011;5953;52.372;9.918;2022-12-07T00:33:51;27.00;;;18.33;;
11791;SDS011;5953;52.372;9.918;2022-12-07T00:36:20;24.80;;;17.33;;
11791;SDS011;5953;52.372;9.918;2022-12-07T00:38:52;27.03;;;17.63;;
11791;SDS011;5953;52.372;9.918;2022-12-07T00:41:21;27.43;;;17.13;;
11791;SDS011;5953;52.372;9.918;2022-12-07T00:43:50;29.40;;;19.23;;
11791;SDS011;5953;52.372;9.918;2022-12-07T00:46:23;28.50;;;18.10;;
11791;SDS011;5953;52.372;9.918;2022-12-07T00:48:52;28.20;;;18.07;;
11791;SDS011;5953;52.372;9.918;2022-12-07T00:51:21;24.73;;;17.90;;
11791;SDS011;5953;52.372;9.918;2022-12-07T00:53:50;26.83;;;17.60;;
11791;SDS011;5953;52.372;9.918;2022-12-07T00:56:21;27.87;;;18.13;;
11791;SDS011;5953;52.372;9.918;2022-12-07T00:58:51;27.47;;;17.80;;
11791;SDS011;5953;52.372;9.918;2022-12-07T01:01:20;27.13;;;18.93;;
11791;SDS011;5953;52.372;9.918;2022-12-07T01:03:49;26.57;;;17.50;;
11791;SDS011;5953;52.372;9.918;2022-12-07T01:06:18;29.17;;;18.50;;
11791;SDS011;5953;52.372;9.918;2022-12-07T01:08:47;28.87;;;18.80;;
11791;SDS011;5953;52.372;9.918;2022-12-07T01:11:19;31.03;;;17.87;;
11791;SDS011;5953;52.372;9.918;2022-12-07T01:13:49;25.73;;;17.47;;
11791;SDS011;5953;52.372;9.918;2022-12-07T01:16:18;26.47;;;18.13;;
11791;SDS011;5953;52.372;9.918;2022-12-07T01:18:49;31.23;;;21.17;;
11791;SDS011;5953;52.372;9.918;2022-12-07T01:21:19;25.70;;;17.50;;
11791;SDS011;5953;52.372;9.918;2022-12-07T01:23:48;27.80;;;17.97;;
11791;SDS011;5953;52.372;9.918;2022-12-07T01:26:19;26.07;;;18.13;;
11791;SDS011;5953;52.372;9.918;2022-12-07T01:28:48;26.67;;;18.13;;
11791;SDS011;5953;52.372;9.918;2022-12-07T01:31:18;26.23;;;17.17;;
11791;SDS011;5953;52.372;9.918;2022-12-07T01:33:49;27.43;;;17.57;;
11791;SDS011;5953;52.372;9.918;2022-12-07T01:36:19;25.37;;;17.07;;
11791;SDS011;5953;52.372;9.918;2022-12-07T01:38:49;27.60;;;18.20;;
11791;SDS011;5953;52.372;9.918;2022-12-07T01:41:23;25.67;;;16.93;;
11791;SDS011;5953;52.372;9.918;2022-12-07T01:44:12;26.97;;;19.33;;
11791;SDS011;5953;52.372;9.918;2022-12-07T01:46:43;26.20;;;18.30;;
11791;SDS011;5953;52.372;9.918;2022-12-07T01:49:14;26.47;;;17.73;;
11791;SDS011;5953;52.372;9.918;2022-12-07T01:51:48;26.37;;;18.13;;
11791;SDS011;5953;52.372;9.918;2022-12-07T01:54:17;29.13;;;18.90;;
11791;SDS011;5953;52.372;9.918;2022-12-07T01:56:49;22.80;;;16.80;;
11791;SDS011;5953;52.372;9.918;2022-12-07T01:59:22;26.13;;;17.03;;
11791;SDS011;5953;52.372;9.918;2022-12-07T02:01:52;23.90;;;16.50;;
11791;SDS011;5953;52.372;9.918;2022-12-07T02:04:22;21.67;;;16.43;;
11791;SDS011;5953;52.372;9.918;2022-12-07T02:06:50;23.80;;;18.43;;
11791;SDS011;5953;52.372;9.918;2022-12-07T02:09:19;24.00;;;18.43;;
11791;SDS011;5953;52.372;9.918;2022-12-07T02:11:47;23.27;;;16.10;;
11791;SDS011;5953;52.372;9.918;2022-12-07T02:14:15;20.90;;;15.87;;
11791;SDS011;5953;52.372;9.918;2022-12-07T02:16:46;22.17;;;16.33;;
11791;SDS011;5953;52.372;9.918;2022-12-07T02:22:50;22.50;;;16.13;;
11791;SDS011;5953;52.372;9.918;2022-12-07T02:25:30;20.20;;;13.63;;
11791;SDS011;5953;52.372;9.918;2022-12-07T02:28:12;20.17;;;14.90;;
11791;SDS011;5953;52.372;9.918;2022-12-07T02:30:48;22.60;;;14.77;;
11791;SDS011;5953;52.372;9.918;2022-12-07T02:33:18;21.77;;;14.73;;
11791;SDS011;5953;52.372;9.918;2022-12-07T02:35:51;21.63;;;14.60;;
11791;SDS011;5953;52.372;9.918;2022-12-07T02:38:25;19.90;;;15.90;;
11791;SDS011;5953;52.372;9.918;2022-12-07T02:40:57;21.40;;;14.97;;
11791;SDS011;5953;52.372;9.918;2022-12-07T02:43:33;20.97;;;14.83;;
11791;SDS011;5953;52.372;9.918;2022-12-07T02:46:08;21.37;;;13.77;;
11791;SDS011;5953;52.372;9.918;2022-12-07T02:48:38;18.87;;;13.67;;
11791;SDS011;5953;52.372;9.918;2022-12-07T02:51:08;20.50;;;14.07;;
11791;SDS011;5953;52.372;9.918;2022-12-07T02:53:37;17.93;;;14.27;;
11791;SDS011;5953;52.372;9.918;2022-12-07T02:56:07;22.93;;;16.17;;
11791;SDS011;5953;52.372;9.918;2022-12-07T02:58:49;19.53;;;14.57;;
11791;SDS011;5953;52.372;9.918;2022-12-07T03:01:28;21.40;;;14.67;;
11791;SDS011;5953;52.372;9.918;2022-12-07T03:04:03;20.40;;;14.87;;
11791;SDS011;5953;52.372;9.918;2022-12-07T03:06:39;19.87;;;14.60;;
11791;SDS011;5953;52.372;9.918;2022-12-07T03:09:13;18.87;;;13.87;;
11791;SDS011;5953;52.372;9.918;2022-12-07T03:11:47;20.37;;;14.00;;
11791;SDS011;5953;52.372;9.918;2022-12-07T03:14:18;20.50;;;12.80;;
11791;SDS011;5953;52.372;9.918;2022-12-07T03:16:53;19.80;;;12.43;;
11791;SDS011;5953;52.372;9.918;2022-12-07T03:19:26;22.20;;;13.53;;
11791;SDS011;5953;52.372;9.918;2022-12-07T03:21:54;17.57;;;12.17;;
11791;SDS011;5953;52.372;9.918;2022-12-07T03:24:26;20.43;;;13.93;;
11791;SDS011;5953;52.372;9.918;2022-12-07T03:26:59;18.57;;;12.40;;
11791;SDS011;5953;52.372;9.918;2022-12-07T03:29:31;16.73;;;11.93;;
11791;SDS011;5953;52.372;9.918;2022-12-07T03:32:06;16.03;;;11.43;;
11791;SDS011;5953;52.372;9.918;2022-12-07T03:34:39;18.00;;;11.17;;
11791;SDS011;5953;52.372;9.918;2022-12-07T03:37:14;17.50;;;11.20;;
11791;SDS011;5953;52.372;9.918;2022-12-07T03:39:49;16.10;;;12.83;;
11791;SDS011;5953;52.372;9.918;2022-12-07T03:42:24;16.07;;;12.17;;
11791;SDS011;5953;52.372;9.918;2022-12-07T03:44:52;16.87;;;11.13;;
11791;SDS011;5953;52.372;9.918;2022-12-07T03:47:23;15.93;;;10.20;;
11791;SDS011;5953;52.372;9.918;2022-12-07T03:49:56;19.87;;;11.23;;
11791;SDS011;5953;52.372;9.918;2022-12-07T03:52:30;17.23;;;11.07;;
11791;SDS011;5953;52.372;9.918;2022-12-07T03:55:05;15.27;;;9.93;;
11791;SDS011;5953;52.372;9.918;2022-12-07T03:57:38;17.53;;;10.87;;
11791;SDS011;5953;52.372;9.918;2022-12-07T04:00:09;19.90;;;9.73;;
11791;SDS011;5953;52.372;9.918;2022-12-07T04:02:41;21.43;;;11.10;;
11791;SDS011;5953;52.372;9.918;2022-12-07T04:05:10;16.47;;;9.37;;
11791;SDS011;5953;52.372;9.918;2022-12-07T04:07:38;16.97;;;10.10;;
11791;SDS011;5953;52.372;9.918;2022-12-07T04:10:06;21.43;;;9.27;;
11791;SDS011;5953;52.372;9.918;2022-12-07T04:12:34;17.73;;;9.93;;
11791;SDS011;5953;52.372;9.918;2022-12-07T04:15:02;15.40;;;9.97;;
11791;SDS011;5953;52.372;9.918;2022-12-07T04:17:31;14.77;;;10.10;;
11791;SDS011;5953;52.372;9.918;2022-12-07T04:20:00;17.77;;;9.13;;
11791;SDS011;5953;52.372;9.918;2022-12-07T04:22:28;17.80;;;9.10;;
11791;SDS011;5953;52.372;9.918;2022-12-07T04:24:56;16.47;;;9.43;;
11791;SDS011;5953;52.372;9.918;2022-12-07T04:27:24;17.90;;;9.97;;
11791;SDS011;5953;52.372;9.918;2022-12-07T04:29:52;14.50;;;9.47;;
11791;SDS011;5953;52.372;9.918;2022-12-07T04:32:21;17.90;;;10.07;;
11791;SDS011;5953;52.372;9.918;2022-12-07T04:34:49;13.07;;;8.20;;
11791;SDS011;5953;52.372;9.918;2022-12-07T04:37:22;14.27;;;9.17;;
11791;SDS011;5953;52.372;9.918;2022-12-07T04:39:50;15.93;;;9.27;;
11791;SDS011;5953;52.372;9.918;2022-12-07T04:42:20;16.53;;;8.83;;
11791;SDS011;5953;52.372;9.918;2022-12-07T04:44:47;17.80;;;10.13;;
11791;SDS011;5953;52.372;9.918;2022-12-07T04:47:15;19.33;;;9.17;;
11791;SDS011;5953;52.372;9.918;2022-12-07T04:49:43;17.93;;;9.17;;
11791;SDS011;5953;52.372;9.918;2022-12-07T04:52:11;15.00;;;9.07;;
11791;SDS011;5953;52.372;9.918;2022-12-07T04:54:40;14.30;;;8.87;;
11791;SDS011;5953;52.372;9.918;2022-12-07T04:57:08;19.77;;;9.93;;
11791;SDS011;5953;52.372;9.918;2022-12-07T04:59:36;15.57;;;8.47;;
11791;SDS011;5953;52.372;9.918;2022-12-07T05:02:10;13.00;;;8.10;;
11791;SDS011;5953;52.372;9.918;2022-12-07T05:04:38;15.17;;;9.10;;
11791;SDS011;5953;52.372;9.918;2022-12-07T05:07:06;13.17;;;8.90;;
11791;SDS011;5953;52.372;9.918;2022-12-07T05:09:34;14.83;;;8.97;;
11791;SDS011;5953;52.372;9.918;2022-12-07T05:12:03;15.00;;;9.80;;
11791;SDS011;5953;52.372;9.918;2022-12-07T05:14:31;18.00;;;9.10;;
11791;SDS011;5953;52.372;9.918;2022-12-07T05:16:59;14.53;;;9.03;;
11791;SDS011;5953;52.372;9.918;2022-12-07T05:19:27;15.30;;;9.10;;
11791;SDS011;5953;52.372;9.918;2022-12-07T05:21:54;21.60;;;9.03;;
11791;SDS011;5953;52.372;9.918;2022-12-07T05:24:22;16.67;;;9.53;;
11791;SDS011;5953;52.372;9.918;2022-12-07T05:26:53;14.03;;;9.20;;
11791;SDS011;5953;52.372;9.918;2022-12-07T05:29:26;15.33;;;9.37;;
11791;SDS011;5953;52.372;9.918;2022-12-07T05:31:53;15.93;;;9.50;;
11791;SDS011;5953;52.372;9.918;2022-12-07T05:34:22;19.50;;;10.20;;
11791;SDS011;5953;52.372;9.918;2022-12-07T05:36:50;17.00;;;9.73;;
11791;SDS011;5953;52.372;9.918;2022-12-07T05:39:17;21.77;;;10.27;;
11791;SDS011;5953;52.372;9.918;2022-12-07T05:41:45;17.03;;;9.03;;
11791;SDS011;5953;52.372;9.918;2022-12-07T05:44:32;18.37;;;10.40;;
11791;SDS011;5953;52.372;9.918;2022-12-07T05:47:00;15.00;;;10.00;;
11791;SDS011;5953;52.372;9.918;2022-12-07T05:49:27;20.33;;;10.50;;
11791;SDS011;5953;52.372;9.918;2022-12-07T05:51:58;19.87;;;9.63;;
11791;SDS011;5953;52.372;9.918;2022-12-07T05:54:26;23.97;;;9.57;;
11791;SDS011;5953;52.372;9.918;2022-12-07T05:56:54;17.90;;;9.43;;
11791;SDS011;5953;52.372;9.918;2022-12-07T05:59:22;13.33;;;8.60;;
11791;SDS011;5953;52.372;9.918;2022-12-07T06:01:50;16.13;;;8.80;;
11791;SDS011;5953;52.372;9.918;2022-12-07T06:04:19;14.27;;;8.00;;
11791;SDS011;5953;52.372;9.918;2022-12-07T06:06:48;17.73;;;8.30;;
11791;SDS011;5953;52.372;9.918;2022-12-07T06:09:17;16.60;;;8.67;;
11791;SDS011;5953;52.372;9.918;2022-12-07T06:11:45;23.63;;;10.10;;
11791;SDS011;5953;52.372;9.918;2022-12-07T06:14:30;15.83;;;8.40;;
11791;SDS011;5953;52.372;9.918;2022-12-07T06:17:00;19.50;;;9.30;;
11791;SDS011;5953;52.372;9.918;2022-12-07T06:19:28;16.93;;;9.10;;
11791;SDS011;5953;52.372;9.918;2022-12-07T06:21:56;15.27;;;8.73;;
11791;SDS011;5953;52.372;9.918;2022-12-07T06:24:24;18.67;;;8.63;;
11791;SDS011;5953;52.372;9.918;2022-12-07T06:26:52;14.17;;;8.80;;
11791;SDS011;5953;52.372;9.918;2022-12-07T06:29:20;15.33;;;8.43;;
11791;SDS011;5953;52.372;9.918;2022-12-07T06:31:48;17.20;;;8.83;;
11791;SDS011;5953;52.372;9.918;2022-12-07T06:34:18;22.50;;;9.60;;
11791;SDS011;5953;52.372;9.918;2022-12-07T06:36:48;14.03;;;8.00;;
11791;SDS011;5953;52.372;9.918;2022-12-07T06:39:20;13.43;;;8.70;;
11791;SDS011;5953;52.372;9.918;2022-12-07T06:41:49;12.57;;;8.20;;
11791;SDS011;5953;52.372;9.918;2022-12-07T06:44:19;14.43;;;8.00;;
11791;SDS011;5953;52.372;9.918;2022-12-07T06:46:48;16.67;;;8.00;;
11791;SDS011;5953;52.372;9.918;2022-12-07T06:49:18;12.70;;;7.40;;
11791;SDS011;5953;52.372;9.918;2022-12-07T06:51:45;16.30;;;8.03;;
11791;SDS011;5953;52.372;9.918;2022-12-07T06:54:14;12.53;;;7.47;;
11791;SDS011;5953;52.372;9.918;2022-12-07T06:56:42;14.07;;;7.97;;
11791;SDS011;5953;52.372;9.918;2022-12-07T06:59:10;17.53;;;7.37;;
11791;SDS011;5953;52.372;9.918;2022-12-07T07:01:38;12.57;;;7.97;;
11791;SDS011;5953;52.372;9.918;2022-12-07T07:04:06;10.10;;;6.90;;
11791;SDS011;5953;52.372;9.918;2022-12-07T07:06:35;9.30;;;6.30;;
11791;SDS011;5953;52.372;9.918;2022-12-07T07:09:03;10.20;;;6.53;;
11791;SDS011;5953;52.372;9.918;2022-12-07T07:11:31;11.73;;;6.17;;
11791;SDS011;5953;52.372;9.918;2022-12-07T07:13:59;17.40;;;6.13;;
11791;SDS011;5953;52.372;9.918;2022-12-07T07:16:28;14.70;;;6.37;;
11791;SDS011;5953;52.372;9.918;2022-12-07T07:18:57;13.17;;;4.93;;
11791;SDS011;5953;52.372;9.918;2022-12-07T07:21:25;13.17;;;5.33;;
11791;SDS011;5953;52.372;9.918;2022-12-07T07:23:55;17.40;;;6.00;;
11791;SDS011;5953;52.372;9.918;2022-12-07T07:26:23;16.40;;;6.10;;
11791;SDS011;5953;52.372;9.918;2022-12-07T07:28:54;9.83;;;4.93;;
11791;SDS011;5953;52.372;9.918;2022-12-07T07:31:22;9.37;;;5.20;;
11791;SDS011;5953;52.372;9.918;2022-12-07T07:33:50;16.63;;;6.00;;
11791;SDS011;5953;52.372;9.918;2022-12-07T07:36:17;18.23;;;5.80;;
11791;SDS011;5953;52.372;9.918;2022-12-07T07:38:45;9.40;;;5.30;;
11791;SDS011;5953;52.372;9.918;2022-12-07T07:41:15;15.40;;;5.70;;
11791;SDS011;5953;52.372;9.918;2022-12-07T07:43:42;15.17;;;5.80;;
11791;SDS011;5953;52.372;9.918;2022-12-07T07:46:10;17.07;;;4.80;;
11791;SDS011;5953;52.372;9.918;2022-12-07T07:48:38;12.97;;;5.83;;
11791;SDS011;5953;52.372;9.918;2022-12-07T07:51:06;11.40;;;5.00;;
11791;SDS011;5953;52.372;9.918;2022-12-07T07:53:35;11.40;;;4.87;;
11791;SDS011;5953;52.372;9.918;2022-12-07T07:56:03;11.07;;;4.13;;
11791;SDS011;5953;52.372;9.918;2022-12-07T07:58:32;9.53;;;4.57;;
11791;SDS011;5953;52.372;9.918;2022-12-07T08:01:03;8.27;;;4.50;;
11791;SDS011;5953;52.372;9.918;2022-12-07T08:03:31;10.50;;;4.50;;
11791;SDS011;5953;52.372;9.918;2022-12-07T08:05:59;10.47;;;4.40;;
11791;SDS011;5953;52.372;9.918;2022-12-07T08:08:28;14.00;;;4.63;;
11791;SDS011;5953;52.372;9.918;2022-12-07T08:10:56;9.47;;;4.47;;
11791;SDS011;5953;52.372;9.918;2022-12-07T08:13:26;16.03;;;4.73;;
11791;SDS011;5953;52.372;9.918;2022-12-07T08:15:58;12.90;;;6.70;;
11791;SDS011;5953;52.372;9.918;2022-12-07T08:18:30;12.53;;;4.90;;
11791;SDS011;5953;52.372;9.918;2022-12-07T08:20:58;6.57;;;3.73;;
11791;SDS011;5953;52.372;9.918;2022-12-07T08:23:27;14.37;;;3.50;;
11791;SDS011;5953;52.372;9.918;2022-12-07T08:26:05;4.60;;;2.90;;
11791;SDS011;5953;52.372;9.918;2022-12-07T08:28:34;6.90;;;2.67;;
11791;SDS011;5953;52.372;9.918;2022-12-07T08:31:10;9.27;;;3.30;;
11791;SDS011;5953;52.372;9.918;2022-12-07T08:33:44;8.63;;;3.53;;
11791;SDS011;5953;52.372;9.918;2022-12-07T08:36:13;8.00;;;3.27;;
11791;SDS011;5953;52.372;9.918;2022-12-07T08:38:41;8.97;;;3.70;;
11791;SDS011;5953;52.372;9.918;2022-12-07T08:41:29;10.13;;;3.80;;
11791;SDS011;5953;52.372;9.918;2022-12-07T08:43:57;11.53;;;3.77;;
11791;SDS011;5953;52.372;9.918;2022-12-07T08:46:28;14.13;;;4.70;;
11791;SDS011;5953;52.372;9.918;2022-12-07T08:49:02;15.73;;;4.67;;
11791;SDS011;5953;52.372;9.918;2022-12-07T08:51:32;14.63;;;4.53;;
11791;SDS011;5953;52.372;9.918;2022-12-07T08:54:10;16.00;;;5.47;;
11791;SDS011;5953;52.372;9.918;2022-12-07T08:56:41;11.10;;;3.97;;
11791;SDS011;5953;52.372;9.918;2022-12-07T08:59:10;11.47;;;4.80;;
11791;SDS011;5953;52.372;9.918;2022-12-07T09:01:43;15.30;;;4.77;;
11791;SDS011;5953;52.372;9.918;2022-12-07T09:04:21;10.23;;;4.40;;
11791;SDS011;5953;52.372;9.918;2022-12-07T09:06:49;14.27;;;5.50;;
11791;SDS011;5953;52.372;9.918;2022-12-07T09:09:17;13.67;;;4.80;;
11791;SDS011;5953;52.372;9.918;2022-12-07T09:11:45;9.07;;;4.07;;
11791;SDS011;5953;52.372;9.918;2022-12-07T09:14:13;7.70;;;2.30;;
11791;SDS011;5953;52.372;9.918;2022-12-07T09:16:41;5.67;;;2.60;;
11791;SDS011;5953;52.372;9.918;2022-12-07T09:19:11;7.93;;;2.70;;
11791;SDS011;5953;52.372;9.918;2022-12-07T09:21:39;9.63;;;3.27;;
11791;SDS011;5953;52.372;9.918;2022-12-07T09:24:07;8.70;;;3.00;;
11791;SDS011;5953;52.372;9.918;2022-12-07T09:26:35;4.23;;;2.30;;
11791;SDS011;5953;52.372;9.918;2022-12-07T09:29:05;6.27;;;2.20;;
11791;SDS011;5953;52.372;9.918;2022-12-07T09:31:35;4.10;;;2.07;;
11791;SDS011;5953;52.372;9.918;2022-12-07T09:34:03;2.20;;;1.70;;
11791;SDS011;5953;52.372;9.918;2022-12-07T09:36:33;5.77;;;2.27;;
11791;SDS011;5953;52.372;9.918;2022-12-07T09:39:01;7.93;;;2.33;;
11791;SDS011;5953;52.372;9.918;2022-12-07T09:41:31;6.93;;;2.73;;
11791;SDS011;5953;52.372;9.918;2022-12-07T09:44:02;4.23;;;2.37;;
11791;SDS011;5953;52.372;9.918;2022-12-07T09:46:34;5.17;;;1.63;;
11791;SDS011;5953;52.372;9.918;2022-12-07T09:49:12;3.37;;;1.87;;
11791;SDS011;5953;52.372;9.918;2022-12-07T09:51:43;6.23;;;1.87;;
11791;SDS011;5953;52.372;9.918;2022-12-07T09:54:12;11.47;;;2.10;;
11791;SDS011;5953;52.372;9.918;2022-12-07T09:56:41;8.23;;;2.40;;
11791;SDS011;5953;52.372;9.918;2022-12-07T09:59:12;9.80;;;3.00;;
11791;SDS011;5953;52.372;9.918;2022-12-07T10:01:42;6.97;;;2.20;;
11791;SDS011;5953;52.372;9.918;2022-12-07T10:04:15;5.97;;;1.93;;
11791;SDS011;5953;52.372;9.918;2022-12-07T10:06:47;14.13;;;3.03;;
11791;SDS011;5953;52.372;9.918;2022-12-07T10:09:18;14.13;;;3.40;;
11791;SDS011;5953;52.372;9.918;2022-12-07T10:12:00;8.83;;;3.47;;
11791;SDS011;5953;52.372;9.918;2022-12-07T10:14:30;8.23;;;2.83;;
11791;SDS011;5953;52.372;9.918;2022-12-07T10:17:34;3.93;;;1.70;;
11791;SDS011;5953;52.372;9.918;2022-12-07T10:20:08;7.60;;;2.27;;
11791;SDS011;5953;52.372;9.918;2022-12-07T10:25:33;6.93;;;2.37;;
11791;SDS011;5953;52.372;9.918;2022-12-07T10:28:09;5.10;;;1.80;;
11791;SDS011;5953;52.372;9.918;2022-12-07T10:30:51;4.90;;;1.73;;
11791;SDS011;5953;52.372;9.918;2022-12-07T10:33:30;4.00;;;1.47;;
11791;SDS011;5953;52.372;9.918;2022-12-07T10:36:00;4.10;;;1.10;;
11791;SDS011;5953;52.372;9.918;2022-12-07T10:38:45;4.93;;;1.50;;
11791;SDS011;5953;52.372;9.918;2022-12-07T10:41:19;4.50;;;1.30;;
11791;SDS011;5953;52.372;9.918;2022-12-07T10:43:51;3.50;;;0.97;;
11791;SDS011;5953;52.372;9.918;2022-12-07T10:49:31;3.80;;;1.37;;
11791;SDS011;5953;52.372;9.918;2022-12-07T10:52:26;1.83;;;1.10;;
11791;SDS011;5953;52.372;9.918;2022-12-07T10:55:14;4.30;;;1.57;;
11791;SDS011;5953;52.372;9.918;2022-12-07T10:57:52;2.40;;;1.17;;
11791;SDS011;5953;52.372;9.918;2022-12-07T11:00:30;6.53;;;1.50;;
11791;SDS011;5953;52.372;9.918;2022-12-07T11:03:08;6.83;;;1.70;;
11791;SDS011;5953;52.372;9.918;2022-12-07T11:05:52;8.83;;;1.93;;
11791;SDS011;5953;52.372;9.918;2022-12-07T11:08:35;4.30;;;1.40;;
11791;SDS011;5953;52.372;9.918;2022-12-07T11:11:14;6.77;;;2.00;;
11791;SDS011;5953;52.372;9.918;2022-12-07T11:13:53;5.57;;;1.50;;
11791;SDS011;5953;52.372;9.918;2022-12-07T11:16:37;6.27;;;1.97;;
11791;SDS011;5953;52.372;9.918;2022-12-07T11:19:18;5.70;;;1.83;;
11791;SDS011;5953;52.372;9.918;2022-12-07T11:22:03;5.60;;;1.63;;
11791;SDS011;5953;52.372;9.918;2022-12-07T11:24:40;10.67;;;2.40;;
11791;SDS011;5953;52.372;9.918;2022-12-07T11:27:20;5.43;;;1.70;;
11791;SDS011;5953;52.372;9.918;2022-12-07T11:29:57;9.43;;;2.73;;
11791;SDS011;5953;52.372;9.918;2022-12-07T11:32:44;6.57;;;1.83;;
11791;SDS011;5953;52.372;9.918;2022-12-07T11:35:24;7.80;;;2.57;;
11791;SDS011;5953;52.372;9.918;2022-12-07T11:38:14;8.77;;;2.30;;
11791;SDS011;5953;52.372;9.918;2022-12-07T11:41:06;9.67;;;2.07;;
11791;SDS011;5953;52.372;9.918;2022-12-07T11:43:52;2.73;;;1.43;;
11791;SDS011;5953;52.372;9.918;2022-12-07T11:46:38;3.73;;;1.10;;
11791;SDS011;5953;52.372;9.918;2022-12-07T11:49:17;7.60;;;1.30;;
11791;SDS011;5953;52.372;9.918;2022-12-07T11:51:52;6.90;;;1.20;;
11791;SDS011;5953;52.372;9.918;2022-12-07T11:54:23;3.30;;;0.70;;
11791;SDS011;5953;52.372;9.918;2022-12-07T11:57:04;2.20;;;0.93;;
11791;SDS011;5953;52.372;9.918;2022-12-07T11:59:56;2.30;;;1.00;;
11791;SDS011;5953;52.372;9.918;2022-12-07T12:02:38;2.23;;;1.07;;
11791;SDS011;5953;52.372;9.918;2022-12-07T12:05:15;3.13;;;0.97;;
11791;SDS011;5953;52.372;9.918;2022-12-07T12:07:55;6.73;;;1.43;;
11791;SDS011;5953;52.372;9.918;2022-12-07T12:11:03;5.70;;;1.10;;
11791;SDS011;5953;52.372;9.918;2022-12-07T12:13:51;6.07;;;1.40;;
11791;SDS011;5953;52.372;9.918;2022-12-07T12:20:17;7.60;;;1.93;;
11791;SDS011;5953;52.372;9.918;2022-12-07T12:22:58;9.67;;;2.20;;
11791;SDS011;5953;52.372;9.918;2022-12-07T12:25:35;6.80;;;1.77;;
11791;SDS011;5953;52.372;9.918;2022-12-07T12:28:23;5.23;;;1.57;;
11791;SDS011;5953;52.372;9.918;2022-12-07T12:31:05;5.53;;;1.90;;
11791;SDS011;5953;52.372;9.918;2022-12-07T12:33:38;9.73;;;2.30;;
11791;SDS011;5953;52.372;9.918;2022-12-07T12:36:25;6.23;;;1.90;;
11791;SDS011;5953;52.372;9.918;2022-12-07T12:39:11;4.03;;;1.60;;
11791;SDS011;5953;52.372;9.918;2022-12-07T12:41:52;5.07;;;2.13;;
11791;SDS011;5953;52.372;9.918;2022-12-07T12:54:04;6.83;;;1.87;;
11791;SDS011;5953;52.372;9.918;2022-12-07T12:56:43;5.33;;;2.00;;
11791;SDS011;5953;52.372;9.918;2022-12-07T12:59:24;8.23;;;2.63;;
11791;SDS011;5953;52.372;9.918;2022-12-07T13:05:26;6.27;;;2.30;;
11791;SDS011;5953;52.372;9.918;2022-12-07T13:08:14;9.20;;;3.17;;
11791;SDS011;5953;52.372;9.918;2022-12-07T13:11:20;6.30;;;2.53;;
11791;SDS011;5953;52.372;9.918;2022-12-07T13:20:51;6.70;;;2.60;;
11791;SDS011;5953;52.372;9.918;2022-12-07T13:26:26;5.77;;;1.87;;
11791;SDS011;5953;52.372;9.918;2022-12-07T13:29:12;5.47;;;2.70;;
11791;SDS011;5953;52.372;9.918;2022-12-07T13:31:59;6.87;;;2.70;;
11791;SDS011;5953;52.372;9.918;2022-12-07T13:34:30;9.07;;;2.33;;
11791;SDS011;5953;52.372;9.918;2022-12-07T13:37:10;5.83;;;2.10;;
11791;SDS011;5953;52.372;9.918;2022-12-07T13:40:18;6.07;;;2.10;;
11791;SDS011;5953;52.372;9.918;2022-12-07T13:42:56;4.47;;;1.87;;
11791;SDS011;5953;52.372;9.918;2022-12-07T13:45:55;8.83;;;2.03;;
11791;SDS011;5953;52.372;9.918;2022-12-07T13:53:07;10.50;;;3.47;;
11791;SDS011;5953;52.372;9.918;2022-12-07T13:55:46;5.63;;;2.07;;
11791;SDS011;5953;52.372;9.918;2022-12-07T13:58:36;4.67;;;2.27;;
11791;SDS011;5953;52.372;9.918;2022-12-07T14:01:04;3.50;;;1.63;;
11791;SDS011;5953;52.372;9.918;2022-12-07T14:04:07;6.60;;;2.13;;
11791;SDS011;5953;52.372;9.918;2022-12-07T14:11:55;7.60;;;1.60;;
11791;SDS011;5953;52.372;9.918;2022-12-07T14:14:39;8.97;;;1.93;;
11791;SDS011;5953;52.372;9.918;2022-12-07T14:17:49;5.73;;;1.47;;
11791;SDS011;5953;52.372;9.918;2022-12-07T14:24:15;6.97;;;2.23;;
11791;SDS011;5953;52.372;9.918;2022-12-07T14:26:53;5.73;;;1.33;;
11791;SDS011;5953;52.372;9.918;2022-12-07T14:29:47;4.40;;;1.60;;
11791;SDS011;5953;52.372;9.918;2022-12-07T14:32:18;10.17;;;2.00;;
11791;SDS011;5953;52.372;9.918;2022-12-07T14:35:00;4.53;;;1.90;;
11791;SDS011;5953;52.372;9.918;2022-12-07T14:37:30;6.27;;;1.80;;
11791;SDS011;5953;52.372;9.918;2022-12-07T14:39:58;6.77;;;1.60;;
11791;SDS011;5953;52.372;9.918;2022-12-07T14:42:26;4.37;;;1.50;;
11791;SDS011;5953;52.372;9.918;2022-12-07T14:44:58;6.00;;;1.60;;
11791;SDS011;5953;52.372;9.918;2022-12-07T14:47:26;4.33;;;1.53;;
11791;SDS011;5953;52.372;9.918;2022-12-07T14:50:18;6.70;;;1.90;;
11791;SDS011;5953;52.372;9.918;2022-12-07T14:52:54;5.90;;;1.53;;
11791;SDS011;5953;52.372;9.918;2022-12-07T14:55:44;2.83;;;1.47;;
11791;SDS011;5953;52.372;9.918;2022-12-07T14:58:12;9.50;;;1.57;;
11791;SDS011;5953;52.372;9.918;2022-12-07T15:00:42;5.63;;;1.80;;
11791;SDS011;5953;52.372;9.918;2022-12-07T15:03:11;5.07;;;2.07;;
11791;SDS011;5953;52.372;9.918;2022-12-07T15:05:39;5.83;;;2.03;;
11791;SDS011;5953;52.372;9.918;2022-12-07T15:08:08;8.10;;;1.93;;
11791;SDS011;5953;52.372;9.918;2022-12-07T15:10:37;11.57;;;1.73;;
11791;SDS011;5953;52.372;9.918;2022-12-07T15:13:05;5.10;;;1.30;;
11791;SDS011;5953;52.372;9.918;2022-12-07T15:15:53;4.37;;;1.50;;
11791;SDS011;5953;52.372;9.918;2022-12-07T15:18:35;7.53;;;1.67;;
11791;SDS011;5953;52.372;9.918;2022-12-07T15:21:03;8.00;;;2.27;;
11791;SDS011;5953;52.372;9.918;2022-12-07T15:23:31;5.50;;;2.20;;
11791;SDS011;5953;52.372;9.918;2022-12-07T15:25:59;7.17;;;1.83;;
11791;SDS011;5953;52.372;9.918;2022-12-07T15:28:27;8.93;;;2.43;;
11791;SDS011;5953;52.372;9.918;2022-12-07T15:30:56;5.37;;;1.77;;
11791;SDS011;5953;52.372;9.918;2022-12-07T15:33:44;5.17;;;2.03;;
11791;SDS011;5953;52.372;9.918;2022-12-07T15:36:15;7.23;;;1.80;;
11791;SDS011;5953;52.372;9.918;2022-12-07T15:38:57;3.20;;;2.00;;
11791;SDS011;5953;52.372;9.918;2022-12-07T15:41:45;6.80;;;2.30;;
11791;SDS011;5953;52.372;9.918;2022-12-07T15:44:13;5.33;;;1.97;;
11791;SDS011;5953;52.372;9.918;2022-12-07T15:47:01;4.97;;;2.30;;
11791;SDS011;5953;52.372;9.918;2022-12-07T15:49:29;6.13;;;1.90;;
11791;SDS011;5953;52.372;9.918;2022-12-07T15:51:56;5.50;;;1.87;;
11791;SDS011;5953;52.372;9.918;2022-12-07T15:54:26;7.43;;;2.37;;
11791;SDS011;5953;52.372;9.918;2022-12-07T15:56:55;5.77;;;2.20;;
11791;SDS011;5953;52.372;9.918;2022-12-07T15:59:23;7.80;;;2.60;;
11791;SDS011;5953;52.372;9.918;2022-12-07T16:01:54;6.67;;;2.37;;
11791;SDS011;5953;52.372;9.918;2022-12-07T16:04:23;8.03;;;3.17;;
11791;SDS011;5953;52.372;9.918;2022-12-07T16:06:51;4.67;;;2.63;;
11791;SDS011;5953;52.372;9.918;2022-12-07T16:09:19;6.13;;;2.80;;
11791;SDS011;5953;52.372;9.918;2022-12-07T16:11:47;8.60;;;3.20;;
11791;SDS011;5953;52.372;9.918;2022-12-07T16:14:30;10.67;;;3.00;;
11791;SDS011;5953;52.372;9.918;2022-12-07T16:17:00;8.33;;;2.47;;